Time;durP1;ratioP1;P1;durP2;ratioP2;P2;SDS_P1;SDS_P2;PMS_P1;PMS_P2;Temp;Humidity;BMP_temperature;BMP_pressure;BME280_temperature;BME280_humidity;BME280_pressure;Samples;Min_cycle;Max_cycle;Signal;HPM_P1;HPM_P2
2022/01/08 00:00:11;;;;;;;9.30;3.30;;;;;;;-1.00;51.63;100378.69;25103;1313;3067955;-65
2022/01/08 00:02:44;;;;;;;11.50;3.30;;;;;;;-0.99;51.59;100383.86;25152;1315;3051782;-62
2022/01/08 00:05:13;;;;;;;13.00;4.20;;;;;;;-1.00;52.24;100383.86;25097;1315;3027768;-62
2022/01/08 00:07:43;;;;;;;13.10;4.80;;;;;;;-1.04;52.23;100380.94;25083;1315;3071424;-63
2022/01/08 00:10:12;;;;;;;12.50;4.50;;;;;;;-1.05;52.22;100384.71;25092;1315;3028358;-61
2022/01/08 00:12:41;;;;;;;19.00;4.90;;;;;;;-1.11;52.40;100380.05;25140;1315;3053098;-62
2022/01/08 00:15:11;;;;;;;15.20;4.30;;;;;;;-1.07;52.84;100381.61;25072;1315;3026506;-67
2022/01/08 00:17:39;;;;;;;17.80;5.40;;;;;;;-1.06;52.68;100380.06;25111;1315;3052665;-59
2022/01/08 00:20:10;;;;;;;18.90;6.70;;;;;;;-1.09;52.41;100379.02;25115;1315;3026404;-64
2022/01/08 00:22:39;;;;;;;14.50;5.20;;;;;;;-1.05;53.01;100376.45;25093;1315;3026543;-64
2022/01/08 00:25:08;;;;;;;19.00;6.50;;;;;;;-1.02;52.87;100379.73;25125;1315;3026357;-65
2022/01/08 00:27:37;;;;;;;31.00;10.20;;;;;;;-1.15;52.43;100380.38;25138;1312;3053798;-66
2022/01/08 00:30:06;;;;;;;47.20;16.20;;;;;;;-1.33;53.97;100380.86;25106;1312;3026570;-66
2022/01/08 00:32:36;;;;;;;39.40;16.50;;;;;;;-1.70;55.83;100374.56;25077;1312;3051659;-65
2022/01/08 00:35:07;;;;;;;44.70;15.90;;;;;;;-1.76;56.43;100373.86;25119;1312;3026772;-62
2022/01/08 00:37:37;;;;;;;43.60;17.30;;;;;;;-1.79;56.51;100376.05;25093;1312;3048776;-62
2022/01/08 00:40:08;;;;;;;29.50;11.10;;;;;;;-1.92;56.65;100374.63;25130;1312;3028679;-66
2022/01/08 00:42:37;;;;;;;23.40;8.30;;;;;;;-1.80;55.69;100363.18;25115;1312;3029135;-64
2022/01/08 00:45:06;;;;;;;24.00;7.60;;;;;;;-1.74;54.78;100359.77;25110;1312;3026173;-65
2022/01/08 00:47:37;;;;;;;33.70;9.20;;;;;;;-1.66;55.13;100363.93;25133;1312;3026652;-62
2022/01/08 00:50:06;;;;;;;28.00;8.40;;;;;;;-1.58;54.79;100364.28;25105;1312;3026999;-61
2022/01/08 00:52:35;;;;;;;24.30;7.20;;;;;;;-1.54;54.10;100357.26;25138;1312;3070596;-63
2022/01/08 00:55:05;;;;;;;23.40;7.10;;;;;;;-1.51;53.68;100353.66;25112;1312;3027006;-63
2022/01/08 00:57:34;;;;;;;26.00;7.20;;;;;;;-1.46;53.85;100355.57;25108;1312;3049882;-61
2022/01/08 01:00:08;;;;;;;28.80;7.90;;;;;;;-1.39;53.64;100362.80;25098;1312;3026344;-65
2022/01/08 01:02:40;;;;;;;25.10;7.30;;;;;;;-1.37;52.93;100360.06;25135;1312;3054687;-67
2022/01/08 01:05:10;;;;;;;26.80;7.40;;;;;;;-1.35;53.12;100358.86;25087;1312;3026567;-63
2022/01/08 01:07:39;;;;;;;24.50;6.90;;;;;;;-1.29;53.17;100360.26;25114;1315;3050083;-61
2022/01/08 01:10:08;;;;;;;24.70;7.10;;;;;;;-1.23;53.21;100359.06;25093;1315;3027181;-67
2022/01/08 01:12:37;;;;;;;22.90;6.40;;;;;;;-1.20;52.94;100361.81;25118;1312;3058124;-62
2022/01/08 01:15:11;;;;;;;16.40;4.30;;;;;;;-1.20;52.40;100364.56;25095;1312;3026620;-65
2022/01/08 01:17:41;;;;;;;20.40;6.20;;;;;;;-1.25;51.17;100357.15;25125;1312;3052292;-62
2022/01/08 01:20:12;;;;;;;34.00;8.70;;;;;;;-1.23;52.29;100352.70;25103;1312;3026834;-65
2022/01/08 01:25:15;;;;;;;34.80;10.10;;;;;;;-1.13;53.59;100364.75;25130;1315;3029659;-63
2022/01/08 01:30:28;;;;;;;19.00;6.70;;;;;;;-1.27;52.58;100363.00;25095;1312;3068229;-62
2022/01/08 01:41:49;;;;;;;15.40;5.90;;;;;;;-1.48;53.33;100359.85;25118;1313;3055795;-66
2022/01/08 01:47:02;;;;;;;14.50;5.30;;;;;;;-2.02;54.48;100367.89;25096;1312;3026732;-62
2022/01/08 01:49:36;;;;;;;14.00;4.60;;;;;;;-2.11;55.04;100372.48;25113;1315;3059284;-63
2022/01/08 01:52:06;;;;;;;12.10;5.10;;;;;;;-1.97;55.02;100370.83;25104;1313;3052662;-62
2022/01/08 01:54:36;;;;;;;10.40;4.30;;;;;;;-2.05;55.70;100372.67;25098;1315;3026739;-63
2022/01/08 01:57:06;;;;;;;16.00;6.90;;;;;;;-2.12;55.57;100370.75;25076;1315;3026681;-64
2022/01/08 01:59:35;;;;;;;12.40;5.60;;;;;;;-2.27;55.31;100372.38;25114;1315;3051652;-66
2022/01/08 02:02:06;;;;;;;11.10;4.80;;;;;;;-2.12;55.28;100369.38;25114;1313;3026361;-64
2022/01/08 02:04:35;;;;;;;13.30;4.50;;;;;;;-2.00;55.15;100372.54;25079;1313;3026825;-63
2022/01/08 02:07:07;;;;;;;11.70;4.10;;;;;;;-1.93;55.18;100369.48;25074;1312;3052160;-65
2022/01/08 02:09:39;;;;;;;16.60;5.40;;;;;;;-1.89;54.74;100371.89;25125;1315;3027244;-64
2022/01/08 02:12:17;;;;;;;11.70;5.20;;;;;;;-1.99;55.09;100372.71;25102;1315;3026463;-63
2022/01/08 02:14:46;;;;;;;18.20;5.40;;;;;;;-2.07;55.28;100375.76;25101;1313;3071534;-63
2022/01/08 02:17:16;;;;;;;22.70;7.60;;;;;;;-2.18;55.45;100376.04;25090;1315;3028717;-62
2022/01/08 02:19:45;;;;;;;20.40;7.30;;;;;;;-2.20;55.98;100377.56;25112;1315;3026645;-66
2022/01/08 02:22:16;;;;;;;21.30;7.60;;;;;;;-2.13;55.85;100375.55;25118;1313;3070825;-70
2022/01/08 02:24:45;;;;;;;26.10;9.60;;;;;;;-2.16;56.43;100377.25;25100;1315;3027895;-61
2022/01/08 02:27:15;;;;;;;36.40;14.10;;;;;;;-2.22;56.97;100377.90;25122;1313;3027538;-66
2022/01/08 02:29:44;;;;;;;72.20;24.20;;;;;;;-2.34;57.02;100384.17;25098;1313;3071266;-63
2022/01/08 02:32:15;;;;;;;55.60;21.30;;;;;;;-2.54;57.92;100392.45;25129;1312;3026490;-59
2022/01/08 02:34:45;;;;;;;51.20;18.00;;;;;;;-2.66;58.59;100395.94;25136;1313;3051070;-64
2022/01/08 02:37:15;;;;;;;46.10;17.40;;;;;;;-2.66;58.52;100396.46;25085;1315;3027152;-62
2022/01/08 02:39:44;;;;;;;49.00;19.20;;;;;;;-2.48;57.68;100390.42;25103;1313;3026467;-65
2022/01/08 02:42:14;;;;;;;45.90;16.40;;;;;;;-2.56;58.34;100389.68;25135;1313;3026763;-63
2022/01/08 02:44:43;;;;;;;46.20;18.90;;;;;;;-2.51;58.43;100388.35;25107;1313;3069051;-64
2022/01/08 02:47:13;;;;;;;37.10;14.90;;;;;;;-2.55;58.12;100397.08;25186;1313;3027831;-65
2022/01/08 02:49:42;;;;;;;48.90;19.20;;;;;;;-2.56;58.37;100395.17;25115;1315;3026466;-59
2022/01/08 02:52:11;;;;;;;47.40;20.30;;;;;;;-2.63;59.16;100397.86;25181;1315;3026181;-66
2022/01/08 02:54:42;;;;;;;50.30;20.90;;;;;;;-2.58;59.20;100399.62;25136;1315;3051189;-61
2022/01/08 02:57:11;;;;;;;71.10;27.50;;;;;;;-2.59;59.21;100400.29;25163;1313;3026697;-65
2022/01/08 02:59:41;;;;;;;63.70;27.30;;;;;;;-2.77;60.06;100405.63;25093;1313;3070338;-63
2022/01/08 03:02:10;;;;;;;61.70;25.40;;;;;;;-2.84;60.54;100411.74;25137;1313;3028712;-61
2022/01/08 03:04:39;;;;;;;56.10;22.70;;;;;;;-2.89;60.69;100411.52;25128;1313;3053853;-62
2022/01/08 03:07:08;;;;;;;48.50;20.90;;;;;;;-2.79;59.77;100412.98;25103;1313;3026887;-64
2022/01/08 03:09:41;;;;;;;46.30;19.50;;;;;;;-3.00;60.24;100413.14;25093;1313;3026509;-65
2022/01/08 03:12:28;;;;;;;33.60;14.80;;;;;;;-2.97;59.96;100416.94;25126;1313;3052076;-62
2022/01/08 03:14:57;;;;;;;43.40;18.70;;;;;;;-2.82;59.04;100419.14;25129;1313;3028507;-66
2022/01/08 03:17:26;;;;;;;42.90;18.10;;;;;;;-3.03;59.10;100416.69;25135;1313;3051550;-59
2022/01/08 03:20:02;;;;;;;39.00;15.70;;;;;;;-2.88;59.39;100413.24;25156;1315;3026212;-63
2022/01/08 03:22:31;;;;;;;46.10;17.30;;;;;;;-2.88;59.40;100414.95;25118;1313;3052697;-66
2022/01/08 03:25:00;;;;;;;46.40;17.90;;;;;;;-2.91;59.78;100416.81;25113;1313;3026680;-62
2022/01/08 03:27:29;;;;;;;36.70;14.80;;;;;;;-2.75;58.50;100411.83;25084;1313;3058411;-65
2022/01/08 03:29:58;;;;;;;39.80;16.60;;;;;;;-2.72;57.68;100408.41;25126;1313;3026782;-65
2022/01/08 03:32:28;;;;;;;35.60;13.90;;;;;;;-2.72;58.22;100404.64;25114;1313;3053909;-63
2022/01/08 03:34:56;;;;;;;29.40;11.10;;;;;;;-2.61;57.89;100401.98;25084;1315;3026629;-61
2022/01/08 03:37:25;;;;;;;18.90;8.00;;;;;;;-2.59;57.27;100404.41;25098;1315;3053807;-64
2022/01/08 03:39:54;;;;;;;25.90;11.50;;;;;;;-2.68;56.78;100403.31;25130;1313;3026638;-62
2022/01/08 03:42:23;;;;;;;32.20;12.60;;;;;;;-2.66;56.47;100406.23;25099;1313;3052073;-62
2022/01/08 03:44:52;;;;;;;29.10;13.10;;;;;;;-2.57;56.38;100409.05;25108;1313;3026200;-63
2022/01/08 03:48:05;;;;;;;31.50;13.90;;;;;;;-2.48;56.49;100402.09;25087;1312;3070153;-66
2022/01/08 03:50:11;;;;;;;29.80;10.90;;;;;;;-2.41;56.16;100397.00;25120;1313;3051415;-62
2022/01/08 03:52:40;;;;;;;33.10;11.60;;;;;;;-2.24;56.49;100399.34;25131;1315;3026803;-62
2022/01/08 03:55:09;;;;;;;22.00;9.10;;;;;;;-2.19;55.83;100401.96;25110;1313;3068462;-62
2022/01/08 03:57:39;;;;;;;26.60;9.50;;;;;;;-2.17;55.67;100399.74;25096;1315;3028409;-59
2022/01/08 04:00:09;;;;;;;23.30;10.00;;;;;;;-2.07;56.25;100400.48;25160;1315;3027593;-64
2022/01/08 04:02:40;;;;;;;25.90;8.60;;;;;;;-1.98;55.86;100396.94;25092;1313;3068118;-62
2022/01/08 04:05:10;;;;;;;23.00;9.40;;;;;;;-1.95;55.35;100397.80;25101;1315;3027018;-63
2022/01/08 04:07:39;;;;;;;26.10;8.60;;;;;;;-1.90;55.57;100402.64;25113;1315;3026893;-67
2022/01/08 04:10:08;;;;;;;26.90;8.50;;;;;;;-1.80;55.23;100414.19;25122;1313;3070493;-61
2022/01/08 04:12:45;;;;;;;21.50;8.80;;;;;;;-1.84;54.51;100412.45;25102;1315;3026811;-60
2022/01/08 04:17:52;;;;;;;29.20;10.80;;;;;;;-1.93;54.42;100415.83;25094;1315;3051060;-65
2022/01/08 04:20:22;;;;;;;28.50;10.10;;;;;;;-1.85;55.27;100414.17;25091;1315;3026894;-65
2022/01/08 04:22:51;;;;;;;27.20;9.40;;;;;;;-1.75;55.23;100416.78;25078;1313;3026588;-66
2022/01/08 04:25:22;;;;;;;21.90;8.00;;;;;;;-1.66;55.18;100421.65;25116;1313;3027201;-64
2022/01/08 04:27:51;;;;;;;25.80;9.00;;;;;;;-1.63;54.70;100419.94;25136;1315;3026482;-62
2022/01/08 04:30:20;;;;;;;25.70;10.60;;;;;;;-1.59;55.02;100429.06;25064;1315;3026676;-62
2022/01/08 04:32:49;;;;;;;29.60;11.20;;;;;;;-1.59;54.87;100428.73;25094;1312;3026703;-64
2022/01/08 04:35:18;;;;;;;39.40;12.00;;;;;;;-1.59;55.03;100432.34;25090;1313;3053555;-64
2022/01/08 04:37:47;;;;;;;26.40;10.40;;;;;;;-1.57;54.85;100429.94;25122;1313;3027094;-65
2022/01/08 04:40:16;;;;;;;28.80;10.40;;;;;;;-1.57;54.92;100431.82;25123;1312;3054833;-62
2022/01/08 04:42:44;;;;;;;27.50;11.90;;;;;;;-1.56;54.88;100429.08;25089;1312;3026217;-65
2022/01/08 04:45:13;;;;;;;29.50;10.80;;;;;;;-1.56;55.37;100427.36;25065;1313;3051379;-66
2022/01/08 04:47:44;;;;;;;27.70;12.20;;;;;;;-1.59;55.34;100424.25;25088;1313;3026438;-63
2022/01/08 04:50:13;;;;;;;29.00;11.40;;;;;;;-1.63;55.80;100426.98;25099;1313;3029195;-64
2022/01/08 04:52:42;;;;;;;24.10;9.80;;;;;;;-1.59;55.98;100425.46;25072;1315;3026576;-64
2022/01/08 04:55:11;;;;;;;25.30;10.40;;;;;;;-1.55;55.66;100426.85;25100;1312;3027102;-67
2022/01/08 04:57:40;;;;;;;30.20;11.20;;;;;;;-1.51;55.59;100429.62;25088;1313;3053334;-62
2022/01/08 05:00:10;;;;;;;29.30;9.50;;;;;;;-1.53;55.64;100432.19;25074;1312;3027458;-66
2022/01/08 05:02:40;;;;;;;21.80;10.50;;;;;;;-1.56;55.45;100432.85;25115;1315;3055292;-65
2022/01/08 05:05:10;;;;;;;26.40;11.80;;;;;;;-1.58;55.75;100437.48;25122;1312;3026544;-64
2022/01/08 05:07:39;;;;;;;27.90;11.50;;;;;;;-1.59;56.01;100438.34;25119;1312;3048316;-59
2022/01/08 05:10:08;;;;;;;28.20;11.30;;;;;;;-1.62;56.16;100434.38;25112;1315;3026337;-65
2022/01/08 05:12:37;;;;;;;29.50;12.30;;;;;;;-1.63;56.18;100439.02;25159;1312;3028337;-62
2022/01/08 05:15:06;;;;;;;24.80;11.20;;;;;;;-1.61;56.31;100449.52;25062;1313;3048869;-62
2022/01/08 05:17:48;;;;;;;29.30;11.80;;;;;;;-1.63;56.05;100447.60;25167;1312;3055466;-65
2022/01/08 05:20:17;;;;;;;30.60;13.00;;;;;;;-1.63;56.12;100454.14;25119;1313;3028149;-59
2022/01/08 05:25:20;;;;;;;21.60;8.30;;;;;;;-1.68;55.48;100460.98;25110;1313;3055107;-61
2022/01/08 05:27:49;;;;;;;21.70;8.90;;;;;;;-1.79;54.88;100467.44;25118;1313;3028396;-62
2022/01/08 05:30:19;;;;;;;22.70;8.80;;;;;;;-1.86;55.19;100466.38;25072;1313;3028742;-61
2022/01/08 05:32:48;;;;;;;17.60;7.50;;;;;;;-1.92;55.21;100470.46;25093;1316;3026539;-63
2022/01/08 05:35:18;;;;;;;26.60;10.20;;;;;;;-1.96;55.36;100473.36;25087;1312;3026466;-63
2022/01/08 05:37:47;;;;;;;27.20;11.60;;;;;;;-2.02;55.43;100475.02;25109;1312;3026883;-61
2022/01/08 05:40:16;;;;;;;30.80;11.50;;;;;;;-2.06;55.47;100472.94;25109;1315;3026539;-61
2022/01/08 05:42:45;;;;;;;28.50;11.80;;;;;;;-2.04;55.17;100476.73;25142;1312;3051772;-60
2022/01/08 05:45:14;;;;;;;30.20;12.50;;;;;;;-2.01;55.38;100479.66;25122;1313;3027186;-60
2022/01/08 05:47:43;;;;;;;27.40;11.50;;;;;;;-2.05;55.15;100479.83;25101;1313;3048047;-62
2022/01/08 05:50:12;;;;;;;28.10;11.00;;;;;;;-2.05;55.04;100483.77;25081;1315;3026380;-68
2022/01/08 05:52:42;;;;;;;32.20;12.00;;;;;;;-2.14;55.36;100484.55;25099;1312;3026468;-59
2022/01/08 05:55:11;;;;;;;24.00;9.70;;;;;;;-2.14;55.58;100487.30;25135;1315;3047809;-60
2022/01/08 05:57:40;;;;;;;22.70;10.10;;;;;;;-2.17;55.37;100491.23;25105;1315;3026351;-64
2022/01/08 06:00:10;;;;;;;19.10;8.70;;;;;;;-2.16;55.77;100496.90;25073;1315;3070535;-62
2022/01/08 06:02:39;;;;;;;19.70;8.40;;;;;;;-2.08;55.74;100498.68;25103;1315;3026235;-63
2022/01/08 06:05:09;;;;;;;15.80;6.70;;;;;;;-2.09;55.80;100497.98;25092;1312;3029269;-63
2022/01/08 06:07:39;;;;;;;16.50;6.20;;;;;;;-2.06;55.58;100496.46;25124;1315;3070194;-64
2022/01/08 06:10:10;;;;;;;19.60;8.50;;;;;;;-2.01;55.73;100504.05;25067;1315;3026397;-63
2022/01/08 06:12:45;;;;;;;14.70;6.80;;;;;;;-2.07;55.88;100503.66;25114;1316;3053964;-68
2022/01/08 06:15:14;;;;;;;21.80;9.00;;;;;;;-2.04;55.65;100501.45;25151;1315;3026419;-60
2022/01/08 06:17:43;;;;;;;20.10;8.60;;;;;;;-2.02;55.93;100501.14;25086;1315;3026139;-66
2022/01/08 06:20:12;;;;;;;30.90;11.40;;;;;;;-1.94;56.23;100501.70;25107;1315;3054356;-62
2022/01/08 06:22:41;;;;;;;26.60;9.40;;;;;;;-1.90;56.08;100501.21;25094;1313;3026650;-63
2022/01/08 06:25:10;;;;;;;25.90;8.80;;;;;;;-1.83;55.68;100499.88;25086;1313;3047039;-61
2022/01/08 06:27:40;;;;;;;21.40;9.00;;;;;;;-1.80;55.59;100502.65;25171;1313;3029263;-64
2022/01/08 06:30:09;;;;;;;19.10;8.80;;;;;;;-1.66;55.66;100503.42;25085;1315;3026152;-64
2022/01/08 06:32:38;;;;;;;23.00;9.30;;;;;;;-1.61;55.49;100502.60;25062;1313;3048942;-65
2022/01/08 06:35:07;;;;;;;16.40;7.70;;;;;;;-1.61;55.19;100498.98;25102;1313;3028743;-62
2022/01/08 06:37:36;;;;;;;17.40;6.40;;;;;;;-1.57;55.25;100500.55;25072;1313;3070609;-64
2022/01/08 06:40:06;;;;;;;15.70;7.00;;;;;;;-1.58;55.40;100499.35;25085;1313;3026342;-61
2022/01/08 06:42:36;;;;;;;13.50;5.70;;;;;;;-1.60;55.26;100502.59;25099;1313;3050979;-63
2022/01/08 06:45:05;;;;;;;9.70;4.80;;;;;;;-1.51;55.60;100505.91;25085;1315;3026866;-66
2022/01/08 06:47:35;;;;;;;14.50;6.50;;;;;;;-1.48;55.16;100509.70;25084;1315;3056771;-64
2022/01/08 06:50:04;;;;;;;12.40;4.80;;;;;;;-1.50;55.19;100510.73;25093;1313;3026500;-61
2022/01/08 06:52:35;;;;;;;15.50;5.80;;;;;;;-1.59;54.73;100508.79;25078;1313;3028552;-66
2022/01/08 06:55:05;;;;;;;9.40;5.00;;;;;;;-1.56;54.84;100507.43;25099;1315;3026445;-64
2022/01/08 06:57:34;;;;;;;16.40;7.00;;;;;;;-1.53;54.93;100515.01;25142;1314;3055246;-63
2022/01/08 07:00:04;;;;;;;18.50;8.20;;;;;;;-1.55;55.31;100510.88;25080;1313;3027124;-63
2022/01/08 07:02:33;;;;;;;16.20;7.20;;;;;;;-1.62;54.96;100518.23;25115;1313;3054535;-61
2022/01/08 07:05:02;;;;;;;15.60;6.10;;;;;;;-1.70;55.52;100523.67;25083;1315;3026979;-64
2022/01/08 07:07:31;;;;;;;12.90;5.80;;;;;;;-1.57;55.17;100523.41;25081;1315;3049393;-63
2022/01/08 07:10:01;;;;;;;15.60;5.10;;;;;;;-1.59;55.36;100525.81;25121;1314;3028483;-63
2022/01/08 07:12:30;;;;;;;10.60;4.10;;;;;;;-1.56;55.00;100525.65;25086;1315;3026591;-66
2022/01/08 07:14:59;;;;;;;11.10;3.80;;;;;;;-1.59;54.92;100530.27;25127;1313;3050594;-61
2022/01/08 07:17:28;;;;;;;8.50;3.60;;;;;;;-1.55;54.72;100528.59;25092;1314;3026099;-65
2022/01/08 07:19:57;;;;;;;8.50;3.50;;;;;;;-1.50;54.64;100526.89;25108;1313;3058708;-62
2022/01/08 07:22:27;;;;;;;9.30;3.50;;;;;;;-1.47;54.83;100527.08;25077;1313;3026444;-67
2022/01/08 07:24:56;;;;;;;7.30;2.90;;;;;;;-1.42;54.91;100526.06;25122;1313;3054682;-65
2022/01/08 07:27:25;;;;;;;8.40;3.40;;;;;;;-1.37;54.62;100526.27;25134;1315;3026319;-64
2022/01/08 07:29:54;;;;;;;12.40;3.50;;;;;;;-1.31;54.65;100526.30;25105;1315;3052132;-63
2022/01/08 07:32:24;;;;;;;11.00;3.30;;;;;;;-1.32;54.69;100519.25;25107;1315;3026738;-67
2022/01/08 07:34:53;;;;;;;7.30;2.70;;;;;;;-1.23;54.56;100517.91;25106;1315;3026180;-62
2022/01/08 07:37:24;;;;;;;6.40;2.80;;;;;;;-1.19;54.52;100518.63;25066;1313;3054023;-65
2022/01/08 07:39:53;;;;;;;7.90;2.70;;;;;;;-1.17;54.74;100517.77;25093;1315;3027053;-62
2022/01/08 07:42:22;;;;;;;9.20;3.10;;;;;;;-1.18;54.72;100521.71;25098;1315;3026533;-64
2022/01/08 07:44:50;;;;;;;8.40;3.50;;;;;;;-1.13;54.84;100523.98;25087;1313;3054625;-64
2022/01/08 07:47:19;;;;;;;8.10;2.80;;;;;;;-1.15;54.94;100526.02;25097;1315;3028958;-63
2022/01/08 07:49:48;;;;;;;10.30;3.50;;;;;;;-1.08;55.08;100528.45;25108;1315;3048634;-64
2022/01/08 07:52:18;;;;;;;10.10;3.80;;;;;;;-1.06;55.10;100529.16;25098;1316;3029749;-60
2022/01/08 07:54:46;;;;;;;10.90;4.10;;;;;;;-1.02;55.28;100530.90;25118;1313;3067682;-62
2022/01/08 07:57:15;;;;;;;12.10;4.30;;;;;;;-1.00;55.63;100528.84;25120;1315;3027409;-63
2022/01/08 07:59:44;;;;;;;13.60;4.00;;;;;;;-1.19;55.55;100528.23;25091;1314;3053705;-64
2022/01/08 08:02:13;;;;;;;17.10;4.30;;;;;;;-1.33;55.41;100528.36;25086;1313;3026283;-61
2022/01/08 08:04:42;;;;;;;12.60;4.60;;;;;;;-1.20;55.37;100526.17;25093;1315;3054560;-61
2022/01/08 08:07:12;;;;;;;14.70;4.50;;;;;;;-1.11;55.78;100519.85;25146;1315;3026291;-63
2022/01/08 08:09:40;;;;;;;14.10;4.20;;;;;;;-0.95;55.39;100522.31;25079;1313;3051924;-65
2022/01/08 08:12:09;;;;;;;9.10;3.80;;;;;;;-0.92;55.06;100513.20;25126;1313;3026404;-64
2022/01/08 08:14:38;;;;;;;10.30;4.30;;;;;;;-0.92;54.13;100510.45;25074;1313;3058424;-63
2022/01/08 08:17:07;;;;;;;11.10;3.70;;;;;;;-0.87;54.46;100512.88;25107;1316;3027605;-63
2022/01/08 08:19:36;;;;;;;7.80;3.00;;;;;;;-0.95;53.98;100508.39;25070;1313;3053252;-65
2022/01/08 08:22:05;;;;;;;13.50;4.20;;;;;;;-1.02;54.32;100504.23;25118;1313;3026444;-64
2022/01/08 08:24:34;;;;;;;11.50;3.40;;;;;;;-0.99;54.43;100502.34;25089;1315;3053891;-64
2022/01/08 08:27:03;;;;;;;8.30;3.20;;;;;;;-0.95;53.96;100501.16;25083;1313;3027102;-63
2022/01/08 08:29:34;;;;;;;14.40;4.10;;;;;;;-0.84;53.81;100497.25;25094;1313;3049477;-63
2022/01/08 08:32:03;;;;;;;15.10;4.30;;;;;;;-0.75;54.35;100496.06;25096;1316;3026587;-64
2022/01/08 08:34:33;;;;;;;12.40;3.50;;;;;;;-0.81;53.60;100492.77;25086;1312;3070373;-65
2022/01/08 08:37:03;;;;;;;10.90;3.40;;;;;;;-0.90;53.59;100489.98;25075;1313;3026362;-64
2022/01/08 08:39:32;;;;;;;11.50;3.70;;;;;;;-0.92;54.01;100492.91;25122;1316;3028505;-64
2022/01/08 08:42:01;;;;;;;14.00;4.10;;;;;;;-0.90;54.17;100486.38;25080;1312;3026876;-66
2022/01/08 08:44:31;;;;;;;10.00;3.80;;;;;;;-0.80;54.37;100480.21;25074;1313;3051495;-65
2022/01/08 08:47:00;;;;;;;9.60;3.90;;;;;;;-0.66;53.97;100475.77;25082;1313;3027410;-66
2022/01/08 08:49:30;;;;;;;15.00;5.00;;;;;;;-0.56;54.61;100472.68;25095;1313;3026505;-66
2022/01/08 08:51:59;;;;;;;7.40;3.00;;;;;;;-0.45;54.60;100469.93;25089;1316;3026748;-62
2022/01/08 08:54:28;;;;;;;7.10;2.20;;;;;;;-0.33;53.51;100469.59;25085;1313;3026498;-66
2022/01/08 08:56:57;;;;;;;7.80;2.70;;;;;;;-0.20;53.13;100466.66;25091;1315;3053865;-66
2022/01/08 08:59:26;;;;;;;11.30;3.10;;;;;;;-0.19;53.51;100462.70;25087;1314;3026336;-66
2022/01/08 09:01:56;;;;;;;8.50;2.80;;;;;;;-0.17;53.17;100459.95;25080;1315;3056005;-63
2022/01/08 09:04:24;;;;;;;7.20;2.30;;;;;;;-0.16;52.25;100454.43;25107;1315;3029196;-63
2022/01/08 09:06:53;;;;;;;7.70;2.40;;;;;;;-0.27;51.50;100449.10;25139;1315;3026180;-64
2022/01/08 09:09:25;;;;;;;6.70;2.20;;;;;;;-0.21;51.68;100442.72;25115;1313;3054360;-66
2022/01/08 09:11:54;;;;;;;7.70;2.80;;;;;;;-0.19;52.32;100439.45;25114;1315;3026867;-65
2022/01/08 09:14:23;;;;;;;5.80;2.20;;;;;;;-0.12;51.88;100432.39;25123;1316;3026455;-65
2022/01/08 09:16:55;;;;;;;8.30;2.70;;;;;;;-0.00;51.66;100433.40;25122;1313;3053830;-63
2022/01/08 09:19:25;;;;;;;7.40;2.90;;;;;;;0.03;51.80;100426.85;25122;1313;3027070;-64
2022/01/08 09:21:54;;;;;;;5.70;2.00;;;;;;;0.14;51.75;100420.80;25081;1313;3026429;-66
2022/01/08 09:24:23;;;;;;;9.30;3.40;;;;;;;0.26;51.42;100413.00;25082;1315;3026507;-63
2022/01/08 09:26:52;;;;;;;9.30;3.70;;;;;;;0.28;51.57;100414.03;25115;1315;3055283;-62
2022/01/08 09:29:21;;;;;;;10.90;4.10;;;;;;;0.35;51.71;100406.94;25081;1313;3026422;-62
2022/01/08 09:31:51;;;;;;;6.50;3.10;;;;;;;0.44;51.19;100401.73;25087;1312;3026961;-64
2022/01/08 09:34:20;;;;;;;10.00;3.90;;;;;;;0.53;50.99;100393.59;25132;1316;3027091;-63
2022/01/08 09:36:49;;;;;;;13.60;4.00;;;;;;;0.52;51.58;100392.73;25103;1315;3058468;-64
2022/01/08 09:39:18;;;;;;;7.40;3.50;;;;;;;0.49;51.66;100391.89;25119;1313;3026903;-67
2022/01/08 09:41:47;;;;;;;11.80;4.00;;;;;;;0.49;51.50;100389.80;25124;1315;3054884;-65
2022/01/08 09:44:16;;;;;;;8.60;4.10;;;;;;;0.53;51.59;100385.48;25116;1315;3027471;-62
2022/01/08 09:46:45;;;;;;;12.00;4.20;;;;;;;0.65;51.78;100380.94;25103;1313;3054059;-63
2022/01/08 09:49:14;;;;;;;7.80;4.20;;;;;;;0.71;51.49;100375.56;25091;1315;3026603;-64
2022/01/08 09:51:43;;;;;;;12.60;4.00;;;;;;;0.63;51.18;100372.50;25106;1313;3050342;-67
2022/01/08 09:54:12;;;;;;;7.30;3.80;;;;;;;0.57;51.53;100375.81;25150;1313;3026620;-65
2022/01/08 09:56:41;;;;;;;11.80;4.30;;;;;;;0.61;51.06;100374.42;25066;1316;3070759;-66
2022/01/08 09:59:10;;;;;;;8.70;4.40;;;;;;;0.70;50.85;100374.02;25088;1315;3029654;-67
2022/01/08 10:01:38;;;;;;;12.10;4.50;;;;;;;0.73;51.37;100370.03;25106;1313;3049816;-64
2022/01/08 10:04:11;;;;;;;8.00;4.20;;;;;;;0.85;51.11;100371.34;25090;1315;3027472;-67
2022/01/08 10:06:40;;;;;;;9.80;4.00;;;;;;;0.93;50.88;100366.80;25102;1317;3028328;-63
2022/01/08 10:09:09;;;;;;;9.20;4.30;;;;;;;1.06;50.52;100362.06;25080;1313;3053903;-64
2022/01/08 10:11:40;;;;;;;7.50;4.00;;;;;;;1.09;50.58;100355.48;25117;1312;3026621;-64
2022/01/08 10:14:15;;;;;;;14.40;5.30;;;;;;;1.11;50.79;100345.27;25060;1315;3052643;-65
2022/01/08 10:19:34;;;;;;;13.40;4.50;;;;;;;1.22;50.54;100341.56;25087;1315;3071674;-61
2022/01/08 10:22:03;;;;;;;8.50;4.50;;;;;;;1.21;50.65;100342.96;25071;1315;3026488;-66
2022/01/08 10:24:32;;;;;;;12.80;4.70;;;;;;;1.34;50.33;100338.02;25028;1315;3026844;-67
2022/01/08 10:27:02;;;;;;;10.10;4.50;;;;;;;1.42;50.40;100333.97;25100;1313;3067227;-68
2022/01/08 10:29:32;;;;;;;15.00;4.20;;;;;;;1.42;50.71;100335.54;25123;1315;3027031;-62
2022/01/08 10:32:02;;;;;;;9.30;4.40;;;;;;;1.46;50.30;100330.48;25115;1315;3026137;-66
2022/01/08 10:34:31;;;;;;;11.20;4.50;;;;;;;1.50;50.38;100332.85;25075;1315;3026663;-62
2022/01/08 10:37:02;;;;;;;10.90;4.10;;;;;;;1.58;50.10;100331.56;25139;1313;3026512;-65
2022/01/08 10:39:36;;;;;;;12.40;3.80;;;;;;;1.57;49.91;100324.16;25138;1313;3054452;-62
2022/01/08 10:42:16;;;;;;;12.60;3.40;;;;;;;1.70;49.90;100323.52;25116;1315;3052456;-69
2022/01/08 10:44:49;;;;;;;7.30;2.70;;;;;;;1.66;49.21;100324.40;25092;1315;3055476;-66
2022/01/08 10:47:18;;;;;;;5.70;2.00;;;;;;;1.71;47.37;100322.63;25105;1315;3026590;-65
2022/01/08 10:49:56;;;;;;;11.20;3.70;;;;;;;1.77;46.98;100324.98;25107;1315;3026977;-62
2022/01/08 10:52:25;;;;;;;10.40;3.50;;;;;;;1.80;47.00;100317.02;25136;1313;3054181;-66
2022/01/08 10:54:59;;;;;;;7.00;2.90;;;;;;;1.87;47.46;100317.98;25119;1315;3026183;-65
2022/01/08 10:57:32;;;;;;;10.00;3.50;;;;;;;1.96;47.41;100323.55;25110;1314;3055319;-66
2022/01/08 11:00:03;;;;;;;11.90;2.90;;;;;;;1.90;47.19;100324.66;25115;1315;3030252;-67
2022/01/08 11:02:32;;;;;;;8.80;3.00;;;;;;;1.91;46.29;100325.02;25066;1313;3026247;-61
2022/01/08 11:05:04;;;;;;;10.50;3.20;;;;;;;1.91;45.90;100316.20;25143;1315;3026776;-61
2022/01/08 11:07:36;;;;;;;6.60;2.50;;;;;;;1.88;45.96;100311.92;25110;1315;3053698;-63
2022/01/08 11:10:08;;;;;;;12.70;2.70;;;;;;;1.87;45.67;100307.60;25092;1313;3027634;-65
2022/01/08 11:12:41;;;;;;;8.70;2.80;;;;;;;1.79;45.97;100307.02;25155;1313;3026476;-63
2022/01/08 11:17:56;;;;;;;12.60;3.20;;;;;;;1.73;46.77;100307.59;25102;1313;3054581;-64
2022/01/08 11:20:30;;;;;;;6.20;3.00;;;;;;;1.76;45.83;100306.36;25112;1315;3056349;-62
2022/01/08 11:23:00;;;;;;;12.50;3.50;;;;;;;1.77;45.42;100300.11;25087;1313;3051573;-64
2022/01/08 11:25:33;;;;;;;5.50;2.20;;;;;;;1.77;45.48;100301.50;25097;1315;3026503;-60
2022/01/08 11:28:13;;;;;;;8.40;2.60;;;;;;;1.83;44.81;100299.52;25101;1313;3026775;-64
2022/01/08 11:30:47;;;;;;;9.30;2.70;;;;;;;1.84;44.48;100295.72;25116;1315;3070848;-65
2022/01/08 11:33:20;;;;;;;8.40;2.80;;;;;;;1.78;44.76;100293.36;25113;1313;3050051;-60
2022/01/08 11:35:52;;;;;;;16.50;3.60;;;;;;;1.79;45.15;100291.80;25118;1313;3055192;-63
2022/01/08 11:38:22;;;;;;;9.60;3.10;;;;;;;1.86;45.60;100288.97;25131;1316;3026638;-63
2022/01/08 11:40:52;;;;;;;9.60;2.90;;;;;;;1.86;45.08;100283.77;25094;1315;3029483;-60